Time;durP1;ratioP1;P1;durP2;ratioP2;P2;SDS_P1;SDS_P2;PMS_P1;PMS_P2;Temp;Humidity;BMP_temperature;BMP_pressure;BME280_temperature;BME280_humidity;BME280_pressure;Samples;Min_cycle;Max_cycle;Signal;HPM_P1;HPM_P2
2023/05/18 00:01:41;;;;;;;7.30;2.78;;;;;;;;;;5037576;28;20040;-74
2023/05/18 00:04:07;;;;;;;9.50;3.00;;;;;;;;;;5027350;28;20749;-74
2023/05/18 00:06:34;;;;;;;10.32;3.42;;;;;;;;;;5006096;28;20565;-75
2023/05/18 00:09:02;;;;;;;12.98;3.63;;;;;;;;;;5002855;28;20175;-73
2023/05/18 00:11:27;;;;;;;9.65;3.17;;;;;;;;;;5035577;28;20034;-74
2023/05/18 00:13:54;;;;;;;8.35;3.35;;;;;;;;;;5008717;28;20052;-74
2023/05/18 00:16:20;;;;;;;8.63;3.38;;;;;;;;;;5036683;28;20200;-74
2023/05/18 00:18:46;;;;;;;12.23;3.13;;;;;;;;;;5012944;28;20037;-74
2023/05/18 00:21:12;;;;;;;11.05;3.75;;;;;;;;;;5006285;28;20124;-74
2023/05/18 00:23:38;;;;;;;9.82;3.50;;;;;;;;;;5005352;28;20174;-74
2023/05/18 00:26:03;;;;;;;9.48;3.35;;;;;;;;;;5035382;28;20544;-73
2023/05/18 00:28:31;;;;;;;7.63;3.00;;;;;;;;;;5037712;28;20361;-74
2023/05/18 00:30:58;;;;;;;8.70;3.50;;;;;;;;;;5005519;28;20308;-74
2023/05/18 00:33:23;;;;;;;11.27;4.00;;;;;;;;;;5034039;28;20041;-73
2023/05/18 00:35:48;;;;;;;8.50;3.17;;;;;;;;;;5030504;28;20821;-75
2023/05/18 00:38:16;;;;;;;12.52;3.72;;;;;;;;;;5008690;28;20366;-75
2023/05/18 00:40:42;;;;;;;7.88;3.67;;;;;;;;;;5005192;28;20037;-75
2023/05/18 00:43:07;;;;;;;9.57;3.17;;;;;;;;;;5037992;28;20612;-74
2023/05/18 00:45:32;;;;;;;11.65;3.40;;;;;;;;;;5004647;28;20045;-74
2023/05/18 00:47:58;;;;;;;8.65;3.53;;;;;;;;;;5036046;28;20056;-74
2023/05/18 00:50:23;;;;;;;11.35;3.58;;;;;;;;;;5004975;28;20144;-73
2023/05/18 00:52:50;;;;;;;15.07;4.45;;;;;;;;;;5005716;28;20041;-74
2023/05/18 00:55:15;;;;;;;9.93;3.58;;;;;;;;;;5006375;28;20110;-73
2023/05/18 00:57:43;;;;;;;9.13;3.30;;;;;;;;;;5006715;28;20037;-75
2023/05/18 01:00:09;;;;;;;7.88;3.38;;;;;;;;;;5038161;28;20033;-74
2023/05/18 01:02:35;;;;;;;10.93;3.45;;;;;;;;;;5040236;28;20037;-75
2023/05/18 01:05:02;;;;;;;11.32;3.42;;;;;;;;;;5040342;28;20053;-74
2023/05/18 01:07:27;;;;;;;10.02;3.80;;;;;;;;;;5008754;28;20106;-74
2023/05/18 01:09:53;;;;;;;10.02;3.72;;;;;;;;;;5009631;28;20033;-74
2023/05/18 01:12:28;;;;;;;11.25;3.53;;;;;;;;;;5014666;28;20252;-75
2023/05/18 01:15:02;;;;;;;10.02;4.03;;;;;;;;;;5009442;28;20053;-74
2023/05/18 01:17:46;;;;;;;9.02;3.55;;;;;;;;;;5012871;28;20614;-74
2023/05/18 01:20:23;;;;;;;10.63;4.03;;;;;;;;;;5010746;28;20086;-75
2023/05/18 01:23:04;;;;;;;9.10;3.58;;;;;;;;;;5037859;28;20026;-75
2023/05/18 01:25:30;;;;;;;10.63;3.90;;;;;;;;;;5009802;28;20033;-76
2023/05/18 01:28:04;;;;;;;11.43;4.00;;;;;;;;;;5040658;28;20056;-75
2023/05/18 01:30:30;;;;;;;13.73;4.25;;;;;;;;;;5006488;28;20063;-75
2023/05/18 01:32:55;;;;;;;11.60;4.10;;;;;;;;;;5007409;28;20609;-74
2023/05/18 01:35:21;;;;;;;11.68;3.85;;;;;;;;;;5008630;28;20696;-75
2023/05/18 01:37:46;;;;;;;13.85;3.42;;;;;;;;;;5008964;28;20159;-75
2023/05/18 01:40:14;;;;;;;12.77;3.92;;;;;;;;;;5008022;28;20048;-74
2023/05/18 01:42:43;;;;;;;14.57;4.15;;;;;;;;;;5039121;28;20056;-74
2023/05/18 01:45:12;;;;;;;15.25;4.22;;;;;;;;;;5007125;28;20546;-74
2023/05/18 01:47:38;;;;;;;12.45;4.15;;;;;;;;;;5007955;28;20813;-74
2023/05/18 01:50:06;;;;;;;13.82;3.75;;;;;;;;;;5011487;28;20060;-74
2023/05/18 01:52:40;;;;;;;12.98;4.15;;;;;;;;;;5004975;28;20042;-74
2023/05/18 01:55:10;;;;;;;15.68;4.70;;;;;;;;;;5035370;28;20068;-74
2023/05/18 01:57:36;;;;;;;8.13;3.78;;;;;;;;;;4993143;28;20042;-74
2023/05/18 02:00:04;;;;;;;14.27;3.65;;;;;;;;;;4988601;28;20054;-74
2023/05/18 02:02:34;;;;;;;13.65;4.10;;;;;;;;;;5007988;28;20030;-74
2023/05/18 02:05:04;;;;;;;12.50;3.72;;;;;;;;;;5007780;28;22189;-74
2023/05/18 02:07:32;;;;;;;11.85;4.18;;;;;;;;;;5011196;28;20041;-74
2023/05/18 02:09:57;;;;;;;13.55;3.80;;;;;;;;;;5039354;28;20041;-74
2023/05/18 02:12:22;;;;;;;10.95;4.28;;;;;;;;;;5007352;28;20034;-74
2023/05/18 02:14:47;;;;;;;11.50;3.90;;;;;;;;;;5006688;28;20033;-74
2023/05/18 02:17:15;;;;;;;14.55;4.82;;;;;;;;;;5036777;28;20042;-74
2023/05/18 02:19:41;;;;;;;12.15;4.45;;;;;;;;;;5008174;28;20038;-74
2023/05/18 02:22:09;;;;;;;13.43;4.45;;;;;;;;;;5006384;28;20049;-74
2023/05/18 02:24:37;;;;;;;13.93;4.15;;;;;;;;;;5006722;28;20183;-73
2023/05/18 02:27:04;;;;;;;14.07;4.15;;;;;;;;;;5012031;28;20434;-74
2023/05/18 02:29:31;;;;;;;14.95;4.20;;;;;;;;;;5038946;28;20542;-74
2023/05/18 02:31:59;;;;;;;8.98;4.10;;;;;;;;;;5006031;28;20149;-74
2023/05/18 02:34:26;;;;;;;13.50;4.60;;;;;;;;;;4987046;28;20771;-75
2023/05/18 02:36:52;;;;;;;9.27;4.30;;;;;;;;;;4987689;28;20033;-74
2023/05/18 02:39:17;;;;;;;11.77;4.55;;;;;;;;;;4987282;28;20077;-74
2023/05/18 02:41:45;;;;;;;8.50;4.10;;;;;;;;;;4988203;28;20112;-74
2023/05/18 02:44:11;;;;;;;11.52;3.90;;;;;;;;;;4986460;28;20042;-74
2023/05/18 02:46:36;;;;;;;11.68;4.30;;;;;;;;;;4987808;28;20042;-74
2023/05/18 02:49:04;;;;;;;10.30;4.47;;;;;;;;;;4987520;28;20652;-74
2023/05/18 02:51:32;;;;;;;10.80;4.63;;;;;;;;;;5018835;28;20434;-74
2023/05/18 02:53:57;;;;;;;13.35;4.20;;;;;;;;;;5007376;28;20076;-75
2023/05/18 02:56:23;;;;;;;9.43;3.75;;;;;;;;;;5029440;28;20991;-74
2023/05/18 02:58:49;;;;;;;13.18;5.00;;;;;;;;;;5011390;28;20045;-74
2023/05/18 03:01:14;;;;;;;13.10;4.50;;;;;;;;;;5027793;28;20160;-74
2023/05/18 03:03:40;;;;;;;11.60;4.40;;;;;;;;;;5024626;28;20043;-75
2023/05/18 03:06:07;;;;;;;12.02;4.28;;;;;;;;;;5054451;28;20079;-74
2023/05/18 03:08:32;;;;;;;9.63;4.25;;;;;;;;;;5023671;28;20041;-74
2023/05/18 03:11:02;;;;;;;10.23;4.38;;;;;;;;;;5028430;28;20041;-74
2023/05/18 03:13:27;;;;;;;14.15;4.75;;;;;;;;;;5055770;28;20037;-74
2023/05/18 03:15:55;;;;;;;9.43;4.90;;;;;;;;;;5023482;28;20269;-74
2023/05/18 03:18:21;;;;;;;13.18;4.70;;;;;;;;;;5056048;28;20179;-75
2023/05/18 03:20:46;;;;;;;11.85;4.63;;;;;;;;;;5005919;28;20503;-75
2023/05/18 03:23:14;;;;;;;17.10;4.65;;;;;;;;;;5003175;28;20053;-74
2023/05/18 03:25:45;;;;;;;13.10;4.80;;;;;;;;;;5010762;28;20083;-73
2023/05/18 03:28:10;;;;;;;12.27;4.53;;;;;;;;;;5005000;28;20347;-74
2023/05/18 03:30:35;;;;;;;14.75;4.63;;;;;;;;;;5005069;28;20276;-75
2023/05/18 03:33:04;;;;;;;19.15;5.15;;;;;;;;;;5004747;28;20046;-74
2023/05/18 03:35:29;;;;;;;16.02;5.07;;;;;;;;;;5006065;28;20037;-74
2023/05/18 03:37:55;;;;;;;13.30;4.45;;;;;;;;;;5006444;28;20045;-75
2023/05/18 03:40:23;;;;;;;12.57;4.68;;;;;;;;;;5005514;28;20126;-74
2023/05/18 03:42:48;;;;;;;12.90;4.90;;;;;;;;;;5006568;28;20112;-75
2023/05/18 03:45:14;;;;;;;10.95;4.25;;;;;;;;;;5035075;28;20041;-74
2023/05/18 03:47:42;;;;;;;17.70;4.95;;;;;;;;;;5002440;28;20089;-74
2023/05/18 03:50:09;;;;;;;13.15;4.18;;;;;;;;;;5000956;28;20102;-74
2023/05/18 03:52:35;;;;;;;12.27;4.18;;;;;;;;;;5000881;28;20096;-74
2023/05/18 03:55:01;;;;;;;12.63;4.70;;;;;;;;;;5030065;28;20090;-75
2023/05/18 03:57:30;;;;;;;11.82;4.40;;;;;;;;;;4986519;28;20125;-75
2023/05/18 03:59:56;;;;;;;8.40;4.10;;;;;;;;;;5018156;28;21445;-74
2023/05/18 04:02:21;;;;;;;12.93;4.25;;;;;;;;;;4987316;28;20042;-75
2023/05/18 04:04:46;;;;;;;14.75;4.10;;;;;;;;;;4986210;28;20029;-75
2023/05/18 04:07:20;;;;;;;8.27;4.10;;;;;;;;;;5019699;28;20037;-75
2023/05/18 04:09:51;;;;;;;12.23;4.43;;;;;;;;;;5006419;28;20637;-75
2023/05/18 04:12:17;;;;;;;11.48;4.10;;;;;;;;;;5007751;28;20060;-74
2023/05/18 04:14:42;;;;;;;16.05;4.60;;;;;;;;;;5008100;28;20034;-75
2023/05/18 04:17:08;;;;;;;15.10;4.40;;;;;;;;;;4987532;28;20026;-75
2023/05/18 04:19:35;;;;;;;10.15;3.95;;;;;;;;;;4990862;28;20030;-74
2023/05/18 04:22:03;;;;;;;15.40;4.00;;;;;;;;;;4988520;28;20025;-74
2023/05/18 04:24:31;;;;;;;12.35;4.03;;;;;;;;;;4988592;28;20034;-74
2023/05/18 04:26:58;;;;;;;12.85;4.30;;;;;;;;;;4991903;28;20037;-75
2023/05/18 04:29:23;;;;;;;11.77;4.05;;;;;;;;;;4986681;28;20957;-74
2023/05/18 04:31:48;;;;;;;15.88;4.15;;;;;;;;;;4986395;28;20057;-75
2023/05/18 04:34:16;;;;;;;13.85;4.00;;;;;;;;;;5017511;28;20046;-74
2023/05/18 04:36:43;;;;;;;12.13;3.55;;;;;;;;;;4989781;28;20510;-74
2023/05/18 04:39:08;;;;;;;14.40;4.28;;;;;;;;;;5014593;28;20041;-74
2023/05/18 04:41:34;;;;;;;13.45;4.80;;;;;;;;;;5011836;28;20170;-74
2023/05/18 04:44:03;;;;;;;11.30;3.72;;;;;;;;;;5011496;28;20083;-74
2023/05/18 04:46:28;;;;;;;10.90;4.00;;;;;;;;;;5011699;28;20867;-74
2023/05/18 04:48:56;;;;;;;8.27;3.22;;;;;;;;;;5018277;28;20033;-74
2023/05/18 04:51:22;;;;;;;10.15;4.03;;;;;;;;;;5045840;28;20045;-74
2023/05/18 04:53:51;;;;;;;12.10;3.97;;;;;;;;;;5012138;28;20048;-75
2023/05/18 04:56:19;;;;;;;12.45;3.85;;;;;;;;;;4992590;28;20064;-74
2023/05/18 04:58:48;;;;;;;15.30;3.65;;;;;;;;;;4994889;28;20845;-74
2023/05/18 05:01:14;;;;;;;12.32;3.78;;;;;;;;;;5004925;28;20052;-75
2023/05/18 05:03:43;;;;;;;18.20;4.53;;;;;;;;;;5013449;28;20038;-75
2023/05/18 05:06:08;;;;;;;9.65;3.10;;;;;;;;;;5012177;28;20041;-75
2023/05/18 05:08:36;;;;;;;8.45;3.42;;;;;;;;;;5012702;28;20103;-75
2023/05/18 05:11:01;;;;;;;9.70;3.22;;;;;;;;;;5013852;28;20035;-77
2023/05/18 05:13:26;;;;;;;12.85;3.00;;;;;;;;;;5013107;28;20049;-76
2023/05/18 05:15:52;;;;;;;12.15;2.90;;;;;;;;;;5042419;28;20030;-72
2023/05/18 05:18:17;;;;;;;11.02;3.28;;;;;;;;;;5044428;28;20087;-72
2023/05/18 05:20:42;;;;;;;13.75;3.45;;;;;;;;;;5033979;28;20048;-72
2023/05/18 05:23:08;;;;;;;8.55;3.03;;;;;;;;;;5019286;28;20092;-72
2023/05/18 05:25:35;;;;;;;11.13;2.78;;;;;;;;;;5009277;28;20524;-73
2023/05/18 05:28:00;;;;;;;14.40;3.22;;;;;;;;;;5007634;28;20623;-72
2023/05/18 05:30:28;;;;;;;14.60;3.38;;;;;;;;;;5028427;28;20083;-72
2023/05/18 05:32:53;;;;;;;10.65;3.38;;;;;;;;;;5010148;28;20518;-73
2023/05/18 05:35:18;;;;;;;12.55;3.50;;;;;;;;;;5009201;28;20037;-72
2023/05/18 05:37:44;;;;;;;10.20;2.72;;;;;;;;;;5042994;28;20084;-72
2023/05/18 05:40:09;;;;;;;9.07;2.60;;;;;;;;;;5043489;28;22471;-72
2023/05/18 05:42:40;;;;;;;10.57;2.85;;;;;;;;;;5005694;28;20136;-72
2023/05/18 05:45:06;;;;;;;8.73;3.03;;;;;;;;;;5009344;28;20033;-72
2023/05/18 05:47:31;;;;;;;7.85;2.80;;;;;;;;;;5040717;28;20060;-72
2023/05/18 05:49:57;;;;;;;8.70;2.92;;;;;;;;;;5026696;28;20042;-72
2023/05/18 05:52:22;;;;;;;7.68;3.17;;;;;;;;;;5011215;28;22155;-73
2023/05/18 05:54:47;;;;;;;9.80;2.80;;;;;;;;;;5006223;28;20581;-73
2023/05/18 05:57:12;;;;;;;14.25;3.40;;;;;;;;;;5037166;28;20091;-73
2023/05/18 05:59:38;;;;;;;7.15;2.75;;;;;;;;;;5040122;28;20068;-74
2023/05/18 06:02:03;;;;;;;12.65;3.45;;;;;;;;;;5005755;28;20663;-72
2023/05/18 06:04:28;;;;;;;8.32;3.40;;;;;;;;;;5003167;28;20041;-71
2023/05/18 06:06:54;;;;;;;9.80;2.63;;;;;;;;;;4985163;28;20271;-72
2023/05/18 06:09:19;;;;;;;11.32;2.90;;;;;;;;;;4987162;28;20030;-70
2023/05/18 06:11:44;;;;;;;6.78;2.50;;;;;;;;;;4986555;28;20144;-71
2023/05/18 06:14:12;;;;;;;10.38;2.80;;;;;;;;;;4987120;28;20108;-71
2023/05/18 06:16:37;;;;;;;10.88;2.50;;;;;;;;;;4984466;28;20495;-71
2023/05/18 06:19:02;;;;;;;10.95;2.70;;;;;;;;;;4983490;28;20042;-72
2023/05/18 06:21:28;;;;;;;9.00;2.70;;;;;;;;;;5015530;28;20428;-71
2023/05/18 06:23:56;;;;;;;9.18;2.40;;;;;;;;;;5012100;28;20041;-73
2023/05/18 06:26:23;;;;;;;15.35;2.75;;;;;;;;;;4986037;28;20040;-72
2023/05/18 06:28:49;;;;;;;11.15;2.63;;;;;;;;;;5018244;28;20125;-72
2023/05/18 06:31:17;;;;;;;10.07;2.63;;;;;;;;;;5006152;28;20032;-73
2023/05/18 06:33:43;;;;;;;9.90;2.90;;;;;;;;;;5010386;28;20041;-73
2023/05/18 06:36:10;;;;;;;9.60;2.40;;;;;;;;;;5009060;28;20067;-73
2023/05/18 06:38:35;;;;;;;8.45;2.45;;;;;;;;;;5007201;28;20037;-72
2023/05/18 06:41:03;;;;;;;12.00;2.40;;;;;;;;;;5003886;28;20286;-71
2023/05/18 06:43:28;;;;;;;8.50;2.03;;;;;;;;;;5006727;28;20581;-72
2023/05/18 06:45:54;;;;;;;8.13;2.45;;;;;;;;;;5005783;28;20052;-72
2023/05/18 06:48:21;;;;;;;10.65;1.95;;;;;;;;;;5037302;28;20489;-72
2023/05/18 06:50:46;;;;;;;14.85;2.40;;;;;;;;;;5008851;28;20033;-73
2023/05/18 06:53:14;;;;;;;8.68;2.45;;;;;;;;;;5006872;28;20056;-71
2023/05/18 06:55:39;;;;;;;12.90;2.53;;;;;;;;;;5004611;28;20041;-71
2023/05/18 06:58:04;;;;;;;7.03;2.40;;;;;;;;;;5006563;28;20063;-72
2023/05/18 07:00:30;;;;;;;9.27;2.10;;;;;;;;;;5035174;28;20037;-73
2023/05/18 07:02:55;;;;;;;9.30;2.53;;;;;;;;;;5007808;28;20041;-72
2023/05/18 07:05:20;;;;;;;8.80;2.63;;;;;;;;;;5007984;28;20121;-69
2023/05/18 07:07:46;;;;;;;11.57;2.50;;;;;;;;;;5007637;28;20103;-72
2023/05/18 07:10:11;;;;;;;8.38;2.33;;;;;;;;;;5007844;28;20451;-71
2023/05/18 07:12:36;;;;;;;10.20;2.60;;;;;;;;;;5008556;28;20116;-72
2023/05/18 07:15:03;;;;;;;9.00;2.33;;;;;;;;;;5037641;28;20040;-72
2023/05/18 07:17:28;;;;;;;8.70;2.63;;;;;;;;;;5012110;28;20112;-73
2023/05/18 07:19:55;;;;;;;9.68;2.38;;;;;;;;;;5006749;28;20079;-72
2023/05/18 07:22:21;;;;;;;10.02;2.63;;;;;;;;;;5008132;28;20634;-71
2023/05/18 07:24:46;;;;;;;7.82;2.22;;;;;;;;;;5007758;28;20666;-72
2023/05/18 07:27:11;;;;;;;9.02;2.95;;;;;;;;;;5008403;28;20026;-72
2023/05/18 07:29:36;;;;;;;11.30;2.60;;;;;;;;;;5005910;28;20060;-72
2023/05/18 07:32:02;;;;;;;11.43;2.35;;;;;;;;;;5006867;28;20069;-72
2023/05/18 07:34:27;;;;;;;7.93;2.50;;;;;;;;;;5039911;28;20048;-72
2023/05/18 07:36:54;;;;;;;8.77;2.30;;;;;;;;;;5007765;28;20047;-72
2023/05/18 07:39:27;;;;;;;9.98;2.50;;;;;;;;;;5008773;28;20033;-72
2023/05/18 07:41:52;;;;;;;10.27;2.90;;;;;;;;;;5005475;28;20126;-72
2023/05/18 07:44:17;;;;;;;12.63;2.78;;;;;;;;;;5036762;28;20323;-71
2023/05/18 07:46:45;;;;;;;8.25;2.53;;;;;;;;;;5002924;28;20103;-71
2023/05/18 07:49:10;;;;;;;9.10;2.78;;;;;;;;;;5007622;28;20801;-72
2023/05/18 07:51:35;;;;;;;9.02;2.60;;;;;;;;;;5039394;28;20034;-72
2023/05/18 07:54:01;;;;;;;10.63;2.80;;;;;;;;;;5012034;28;20107;-73
2023/05/18 07:56:26;;;;;;;12.60;2.58;;;;;;;;;;5002957;28;20740;-73
2023/05/18 07:58:51;;;;;;;9.80;2.60;;;;;;;;;;5037393;28;20045;-72
2023/05/18 08:01:16;;;;;;;13.82;2.80;;;;;;;;;;5005092;28;20037;-73
2023/05/18 08:03:42;;;;;;;9.77;2.60;;;;;;;;;;5004417;28;20582;-72
2023/05/18 08:06:09;;;;;;;11.57;2.80;;;;;;;;;;5005383;28;20615;-72
2023/05/18 08:08:37;;;;;;;9.07;2.67;;;;;;;;;;5022108;28;20505;-72
2023/05/18 08:11:03;;;;;;;10.55;2.70;;;;;;;;;;5002952;28;20068;-72
2023/05/18 08:13:29;;;;;;;7.55;2.70;;;;;;;;;;5011898;28;20553;-72
2023/05/18 08:15:54;;;;;;;12.05;3.03;;;;;;;;;;5006338;28;20414;-72
2023/05/18 08:18:22;;;;;;;9.77;2.65;;;;;;;;;;5003598;28;20485;-71
2023/05/18 08:20:52;;;;;;;9.52;3.13;;;;;;;;;;5006187;28;20064;-72
2023/05/18 08:23:18;;;;;;;9.55;2.40;;;;;;;;;;5002434;28;20473;-72
2023/05/18 08:25:46;;;;;;;8.75;2.65;;;;;;;;;;5036780;28;20029;-73
2023/05/18 08:28:11;;;;;;;8.55;2.70;;;;;;;;;;5017727;28;20072;-72
2023/05/18 08:30:36;;;;;;;9.57;2.45;;;;;;;;;;4986961;28;20530;-70
2023/05/18 08:33:01;;;;;;;8.35;2.75;;;;;;;;;;4988034;28;20046;-72
2023/05/18 08:35:27;;;;;;;7.90;2.40;;;;;;;;;;4985108;28;20038;-73
2023/05/18 08:37:55;;;;;;;13.02;2.63;;;;;;;;;;4985440;28;20047;-70
2023/05/18 08:40:20;;;;;;;12.07;3.17;;;;;;;;;;4989750;28;20041;-71
2023/05/18 08:42:50;;;;;;;5.93;2.40;;;;;;;;;;5008684;28;20079;-72
2023/05/18 08:45:22;;;;;;;12.43;3.08;;;;;;;;;;5005554;28;20179;-72
2023/05/18 08:47:49;;;;;;;11.55;3.38;;;;;;;;;;5037193;28;20029;-72
2023/05/18 08:50:19;;;;;;;14.40;2.92;;;;;;;;;;5035363;28;20141;-72
2023/05/18 08:52:50;;;;;;;10.60;2.55;;;;;;;;;;5037531;28;20053;-72
2023/05/18 08:55:18;;;;;;;10.57;2.72;;;;;;;;;;5009250;28;20574;-72
2023/05/18 08:57:48;;;;;;;9.80;3.17;;;;;;;;;;5005835;28;20073;-70
2023/05/18 09:00:17;;;;;;;8.05;2.80;;;;;;;;;;5005953;28;20029;-72
2023/05/18 09:02:42;;;;;;;7.50;2.40;;;;;;;;;;5007542;28;20105;-71
2023/05/18 09:05:08;;;;;;;11.68;2.78;;;;;;;;;;5040136;28;20059;-71
2023/05/18 09:07:40;;;;;;;7.78;2.35;;;;;;;;;;5036652;28;20033;-72
2023/05/18 09:10:06;;;;;;;12.10;2.80;;;;;;;;;;5005995;28;20037;-72
2023/05/18 09:12:33;;;;;;;8.02;3.00;;;;;;;;;;5006860;28;20091;-72
2023/05/18 09:14:59;;;;;;;8.02;2.90;;;;;;;;;;5003458;28;20159;-71
2023/05/18 09:17:24;;;;;;;9.52;2.47;;;;;;;;;;5007090;28;20083;-72
2023/05/18 09:19:50;;;;;;;10.88;2.85;;;;;;;;;;5034145;28;20366;-72
2023/05/18 09:22:15;;;;;;;10.13;2.78;;;;;;;;;;5032926;28;20030;-72
2023/05/18 09:24:40;;;;;;;8.68;2.85;;;;;;;;;;5008448;28;20500;-72
2023/05/18 09:27:05;;;;;;;7.43;2.60;;;;;;;;;;5005112;28;20045;-72
2023/05/18 09:29:31;;;;;;;8.18;2.40;;;;;;;;;;5005650;28;20550;-72
2023/05/18 09:31:56;;;;;;;6.80;2.33;;;;;;;;;;5007758;28;20029;-72
2023/05/18 09:34:24;;;;;;;7.85;2.67;;;;;;;;;;5005755;28;20076;-72
2023/05/18 09:36:51;;;;;;;9.45;2.80;;;;;;;;;;5007063;28;20044;-69
2023/05/18 09:39:19;;;;;;;5.15;2.15;;;;;;;;;;5011314;28;20060;-77
2023/05/18 09:41:44;;;;;;;9.43;2.10;;;;;;;;;;5025604;28;20041;-77
2023/05/18 09:44:11;;;;;;;12.80;3.05;;;;;;;;;;5042490;28;22271;-79
2023/05/18 09:46:37;;;;;;;11.93;2.85;;;;;;;;;;5031836;28;20082;-78
2023/05/18 09:49:03;;;;;;;8.68;2.58;;;;;;;;;;5033225;28;20033;-78
2023/05/18 09:51:28;;;;;;;8.55;2.95;;;;;;;;;;5002618;28;22179;-79
2023/05/18 09:53:55;;;;;;;8.50;2.40;;;;;;;;;;5005599;28;20051;-77
2023/05/18 09:56:21;;;;;;;12.27;2.80;;;;;;;;;;4999965;28;20043;-79
2023/05/18 09:58:49;;;;;;;8.25;2.42;;;;;;;;;;4996380;28;20030;-78
2023/05/18 10:01:14;;;;;;;8.60;2.17;;;;;;;;;;4992071;28;20123;-78
2023/05/18 10:03:40;;;;;;;8.57;2.40;;;;;;;;;;5001845;28;20470;-78
2023/05/18 10:06:08;;;;;;;9.95;2.78;;;;;;;;;;4996301;28;20042;-79
2023/05/18 10:08:34;;;;;;;7.03;2.40;;;;;;;;;;4989375;28;20132;-74
2023/05/18 10:11:02;;;;;;;8.70;2.60;;;;;;;;;;4989018;28;20186;-77
2023/05/18 10:13:30;;;;;;;10.40;2.42;;;;;;;;;;4980866;28;20045;-76
2023/05/18 10:15:57;;;;;;;8.15;2.55;;;;;;;;;;4997104;28;21591;-76
2023/05/18 10:18:24;;;;;;;6.90;2.38;;;;;;;;;;4996771;28;20030;-77
2023/05/18 10:20:50;;;;;;;9.05;2.50;;;;;;;;;;4991827;28;20038;-76
2023/05/18 10:23:19;;;;;;;10.57;2.55;;;;;;;;;;4990619;28;20033;-77
2023/05/18 10:25:46;;;;;;;6.25;2.08;;;;;;;;;;4989232;28;20492;-77
2023/05/18 10:28:13;;;;;;;10.00;2.40;;;;;;;;;;4991648;28;20057;-71
2023/05/18 10:30:41;;;;;;;8.77;2.42;;;;;;;;;;4988695;28;20060;-78
2023/05/18 10:33:07;;;;;;;7.90;2.22;;;;;;;;;;4987310;28;20550;-76
2023/05/18 10:35:34;;;;;;;8.88;2.47;;;;;;;;;;4988244;28;20037;-78
2023/05/18 10:38:00;;;;;;;9.40;2.58;;;;;;;;;;4987997;28;20159;-80
2023/05/18 10:40:29;;;;;;;8.77;2.58;;;;;;;;;;5017215;28;20038;-77
2023/05/18 10:42:56;;;;;;;7.32;2.15;;;;;;;;;;4987238;28;20034;-77
2023/05/18 10:45:21;;;;;;;7.72;2.58;;;;;;;;;;4988727;28;20074;-72
2023/05/18 10:47:52;;;;;;;7.55;1.98;;;;;;;;;;4990187;28;20128;-79
2023/05/18 10:50:19;;;;;;;7.13;2.40;;;;;;;;;;4990609;28;20029;-78
2023/05/18 10:52:46;;;;;;;7.13;2.83;;;;;;;;;;4987993;28;20907;-78
2023/05/18 10:55:14;;;;;;;6.55;2.47;;;;;;;;;;5019784;28;20037;-77
2023/05/18 10:57:42;;;;;;;10.05;2.80;;;;;;;;;;4989087;28;20539;-79
2023/05/18 11:00:08;;;;;;;8.75;2.65;;;;;;;;;;4990769;28;22878;-70
2023/05/18 11:02:33;;;;;;;8.02;2.45;;;;;;;;;;5010415;28;20107;-77
2023/05/18 11:04:59;;;;;;;7.35;2.80;;;;;;;;;;4989606;28;20065;-76
2023/05/18 11:07:27;;;;;;;7.05;2.83;;;;;;;;;;5028099;28;20825;-76
2023/05/18 11:09:52;;;;;;;9.65;2.70;;;;;;;;;;5011639;28;20037;-76
2023/05/18 11:12:17;;;;;;;10.65;3.03;;;;;;;;;;5005983;28;20486;-76
2023/05/18 11:14:52;;;;;;;9.55;2.63;;;;;;;;;;5035307;28;20044;-76
2023/05/18 11:17:19;;;;;;;9.60;2.88;;;;;;;;;;5013086;28;20040;-77
2023/05/18 11:20:11;;;;;;;10.48;2.80;;;;;;;;;;5002634;28;20061;-75
2023/05/18 11:22:55;;;;;;;10.70;2.70;;;;;;;;;;5028854;28;20041;-78
2023/05/18 11:25:27;;;;;;;7.50;2.92;;;;;;;;;;5038810;28;20075;-79
2023/05/18 11:28:06;;;;;;;9.23;3.05;;;;;;;;;;5036761;28;20451;-78
2023/05/18 11:30:31;;;;;;;10.00;3.33;;;;;;;;;;5009112;28;20093;-78
2023/05/18 11:33:07;;;;;;;9.77;2.60;;;;;;;;;;5007496;28;20045;-78
2023/05/18 11:35:33;;;;;;;8.07;2.70;;;;;;;;;;5006474;28;20127;-76
2023/05/18 11:38:05;;;;;;;8.25;2.70;;;;;;;;;;5038518;28;20212;-78
2023/05/18 11:40:47;;;;;;;9.15;2.50;;;;;;;;;;5007528;28;20044;-78
2023/05/18 11:43:22;;;;;;;8.70;2.72;;;;;;;;;;5011076;28;20270;-78
2023/05/18 11:45:55;;;;;;;10.38;2.97;;;;;;;;;;5013987;28;20087;-78
2023/05/18 11:48:24;;;;;;;10.63;2.55;;;;;;;;;;5006438;28;20087;-76
2023/05/18 11:50:51;;;;;;;8.40;2.70;;;;;;;;;;5009820;28;20033;-78
2023/05/18 11:53:23;;;;;;;9.07;2.70;;;;;;;;;;5009862;28;20045;-79
2023/05/18 11:55:50;;;;;;;9.45;2.75;;;;;;;;;;5040036;28;20570;-78
2023/05/18 11:58:19;;;;;;;10.48;2.70;;;;;;;;;;5007408;28;20399;-79
2023/05/18 12:00:46;;;;;;;10.15;2.60;;;;;;;;;;5012326;28;21007;-79
2023/05/18 12:03:12;;;;;;;8.63;2.40;;;;;;;;;;5040359;28;20034;-75
2023/05/18 12:05:40;;;;;;;7.75;2.70;;;;;;;;;;5007083;28;20056;-78
2023/05/18 12:08:06;;;;;;;9.48;2.55;;;;;;;;;;5004595;28;20067;-78
2023/05/18 12:10:37;;;;;;;9.60;2.60;;;;;;;;;;5005768;28;20087;-77
2023/05/18 12:13:05;;;;;;;8.30;2.60;;;;;;;;;;5038268;28;20181;-78
2023/05/18 12:15:30;;;;;;;8.40;2.63;;;;;;;;;;5005487;28;20745;-79
2023/05/18 12:17:57;;;;;;;10.73;3.00;;;;;;;;;;5026193;28;20037;-77
2023/05/18 12:20:27;;;;;;;7.90;2.67;;;;;;;;;;5037034;28;20038;-78
2023/05/18 12:22:52;;;;;;;7.05;2.65;;;;;;;;;;5013477;28;20076;-74
2023/05/18 12:25:20;;;;;;;7.90;2.90;;;;;;;;;;5007974;28;20524;-79
2023/05/18 12:27:49;;;;;;;10.68;3.10;;;;;;;;;;5035838;28;20034;-78
2023/05/18 12:30:14;;;;;;;6.90;2.60;;;;;;;;;;4993805;28;20468;-79
2023/05/18 12:32:43;;;;;;;9.27;2.83;;;;;;;;;;5017652;28;20414;-79
2023/05/18 12:35:08;;;;;;;7.38;2.35;;;;;;;;;;4991790;28;20029;-79
2023/05/18 12:37:40;;;;;;;6.45;2.50;;;;;;;;;;4985212;28;20117;-79
2023/05/18 12:40:11;;;;;;;9.40;3.10;;;;;;;;;;4986088;28;20084;-77
2023/05/18 12:42:37;;;;;;;6.90;2.25;;;;;;;;;;4985179;28;20761;-77
2023/05/18 12:45:02;;;;;;;9.60;2.90;;;;;;;;;;4986791;28;20053;-79
2023/05/18 12:47:33;;;;;;;7.28;2.47;;;;;;;;;;4988283;28;20030;-78
2023/05/18 12:50:02;;;;;;;10.93;2.90;;;;;;;;;;5016770;28;20041;-77
2023/05/18 12:52:27;;;;;;;9.10;2.95;;;;;;;;;;4984644;28;22401;-78
2023/05/18 12:54:54;;;;;;;9.75;3.15;;;;;;;;;;4990324;28;20288;-78
2023/05/18 12:57:20;;;;;;;8.05;2.97;;;;;;;;;;5010773;28;20045;-77
2023/05/18 12:59:49;;;;;;;11.63;3.20;;;;;;;;;;5008748;28;20556;-77
2023/05/18 13:02:30;;;;;;;8.95;3.58;;;;;;;;;;5007435;28;20131;-77
2023/05/18 13:05:01;;;;;;;8.75;3.33;;;;;;;;;;5011666;28;20037;-77
2023/05/18 13:07:27;;;;;;;9.45;3.33;;;;;;;;;;5041533;28;20208;-77
2023/05/18 13:09:55;;;;;;;10.48;3.70;;;;;;;;;;5010245;28;21867;-76
2023/05/18 13:12:34;;;;;;;10.63;3.45;;;;;;;;;;5008359;28;20593;-76
2023/05/18 13:15:06;;;;;;;8.10;3.22;;;;;;;;;;5009339;28;20045;-76
2023/05/18 13:17:34;;;;;;;8.02;2.75;;;;;;;;;;5008113;28;20064;-76
2023/05/18 13:19:59;;;;;;;11.27;3.10;;;;;;;;;;5038933;28;20037;-77
2023/05/18 13:22:24;;;;;;;6.53;3.00;;;;;;;;;;5009659;28;20091;-76
2023/05/18 13:24:50;;;;;;;7.07;3.17;;;;;;;;;;5015937;28;20037;-76
2023/05/18 13:27:15;;;;;;;9.77;3.42;;;;;;;;;;5008699;28;20639;-77
2023/05/18 13:29:40;;;;;;;8.45;3.40;;;;;;;;;;5009459;28;20037;-77
2023/05/18 13:32:08;;;;;;;8.52;3.58;;;;;;;;;;5006323;28;20313;-77
2023/05/18 13:34:33;;;;;;;10.05;3.90;;;;;;;;;;5037370;28;20055;-76
2023/05/18 13:36:59;;;;;;;9.23;3.40;;;;;;;;;;5021660;28;20046;-79
2023/05/18 13:39:25;;;;;;;10.98;3.80;;;;;;;;;;5006151;28;20094;-72
2023/05/18 13:41:50;;;;;;;9.38;3.35;;;;;;;;;;5037757;28;20029;-73
2023/05/18 13:44:16;;;;;;;8.38;3.53;;;;;;;;;;4993700;28;20321;-71
2023/05/18 13:46:42;;;;;;;8.38;3.83;;;;;;;;;;5036847;28;20037;-71
2023/05/18 13:49:11;;;;;;;8.90;3.63;;;;;;;;;;5013247;28;20041;-72
2023/05/18 13:51:39;;;;;;;7.72;2.85;;;;;;;;;;5012540;28;20029;-73
2023/05/18 13:54:07;;;;;;;7.85;3.17;;;;;;;;;;5043898;28;20048;-73
2023/05/18 13:56:33;;;;;;;11.27;3.42;;;;;;;;;;5044318;28;20037;-74
2023/05/18 13:59:00;;;;;;;6.78;3.28;;;;;;;;;;5041795;28;20048;-75
2023/05/18 14:01:26;;;;;;;8.75;3.33;;;;;;;;;;5030904;28;20033;-73
2023/05/18 14:03:51;;;;;;;7.28;3.10;;;;;;;;;;5013510;28;20045;-72
2023/05/18 14:06:22;;;;;;;7.60;3.00;;;;;;;;;;5042482;28;20047;-70
2023/05/18 14:08:47;;;;;;;9.43;3.28;;;;;;;;;;5013518;28;20150;-72
2023/05/18 14:11:12;;;;;;;7.80;2.92;;;;;;;;;;5025681;28;20056;-71
2023/05/18 14:13:37;;;;;;;9.43;3.17;;;;;;;;;;5006961;28;20407;-74
2023/05/18 14:16:03;;;;;;;8.23;2.95;;;;;;;;;;5006041;28;20030;-73
2023/05/18 14:18:28;;;;;;;8.45;3.10;;;;;;;;;;5005719;28;20045;-75
2023/05/18 14:20:56;;;;;;;10.30;3.40;;;;;;;;;;5029548;28;20041;-71
2023/05/18 14:23:23;;;;;;;6.10;3.08;;;;;;;;;;5008884;28;20033;-73
2023/05/18 14:25:50;;;;;;;8.85;3.00;;;;;;;;;;5009922;28;20117;-75
2023/05/18 14:28:16;;;;;;;7.25;3.08;;;;;;;;;;5005954;28;20033;-73
2023/05/18 14:30:41;;;;;;;8.32;3.35;;;;;;;;;;5037883;28;20518;-72
2023/05/18 14:33:09;;;;;;;8.50;3.28;;;;;;;;;;5041176;28;20033;-73
2023/05/18 14:35:34;;;;;;;9.05;3.38;;;;;;;;;;5019714;28;20034;-74